createdAt,value
2018-05-09T00:01:30.616Z,3.73
2018-05-09T00:03:59.611Z,3.77
2018-05-09T00:06:27.476Z,4.23
2018-05-09T00:08:55.338Z,4.20
2018-05-09T00:11:23.306Z,4.43
2018-05-09T00:13:51.173Z,3.93
2018-05-09T00:16:19.039Z,4.20
2018-05-09T00:18:46.905Z,3.53
2018-05-09T00:21:14.667Z,3.70
2018-05-09T00:23:42.534Z,4.03
2018-05-09T00:26:10.399Z,3.63
2018-05-09T00:28:38.264Z,3.80
2018-05-09T00:31:06.164Z,3.53
2018-05-09T00:33:34.818Z,4.07
2018-05-09T00:36:02.681Z,3.30
2018-05-09T00:38:30.545Z,3.63
2018-05-09T00:40:58.410Z,3.63
2018-05-09T00:43:26.483Z,4.33
2018-05-09T00:45:54.347Z,3.60
2018-05-09T00:48:22.214Z,3.63
2018-05-09T00:50:50.080Z,3.53
2018-05-09T00:53:17.947Z,4.33
2018-05-09T00:55:45.810Z,3.60
2018-05-09T00:58:14.499Z,4.10
2018-05-09T01:00:42.361Z,3.90
2018-05-09T01:03:10.229Z,3.70
2018-05-09T01:05:38.196Z,4.23
2018-05-09T01:08:06.678Z,4.00
2018-05-09T01:10:34.544Z,4.20
2018-05-09T01:13:02.409Z,4.90
2018-05-09T01:15:30.489Z,4.27
2018-05-09T01:17:58.346Z,3.83
2018-05-09T01:20:26.215Z,4.50
2018-05-09T01:22:54.078Z,4.50
2018-05-09T01:25:21.944Z,5.10
2018-05-09T01:27:49.808Z,4.57
2018-05-09T01:30:17.674Z,4.90
2018-05-09T01:32:45.542Z,4.37
2018-05-09T01:35:13.408Z,4.80
2018-05-09T01:37:41.480Z,4.83
2018-05-09T01:40:09.344Z,4.60
2018-05-09T01:42:37.210Z,4.50
2018-05-09T01:45:05.177Z,5.00
2018-05-09T01:47:33.043Z,4.97
2018-05-09T01:50:01.011Z,5.80
2018-05-09T01:52:28.879Z,5.90
2018-05-09T01:54:56.866Z,4.90
2018-05-09T01:57:25.528Z,5.27
2018-05-09T01:59:53.395Z,5.90
2018-05-09T02:02:21.261Z,5.70
2018-05-09T02:04:49.125Z,4.83
2018-05-09T02:07:17.504Z,4.87
2018-05-09T02:09:45.369Z,6.00
2018-05-09T02:12:13.234Z,5.20
2018-05-09T02:14:41.203Z,5.37
2018-05-09T02:17:09.071Z,6.27
2018-05-09T02:19:36.934Z,5.87
2018-05-09T02:22:04.805Z,6.50
2018-05-09T02:24:33.178Z,5.53
2018-05-09T02:27:01.051Z,6.10
2018-05-09T02:29:28.912Z,5.87
2018-05-09T02:31:56.781Z,6.20
2018-05-09T02:34:24.642Z,6.17
2018-05-09T02:36:52.508Z,7.10
2018-05-09T02:39:20.410Z,6.80
2018-05-09T02:41:49.062Z,7.03
2018-05-09T02:44:16.924Z,6.30
2018-05-09T02:46:44.795Z,6.10
2018-05-09T02:49:12.663Z,6.77
2018-05-09T02:51:40.626Z,6.67
2018-05-09T02:54:08.492Z,6.47
2018-05-09T02:56:36.359Z,7.03
2018-05-09T02:59:04.325Z,6.83
2018-05-09T03:01:32.192Z,7.47
2018-05-09T03:04:00.056Z,6.50
2018-05-09T03:06:27.926Z,7.27
2018-05-09T03:08:55.791Z,7.63
2018-05-09T03:11:23.657Z,7.37
2018-05-09T03:13:52.190Z,7.03
2018-05-09T03:16:20.001Z,7.77
2018-05-09T03:18:47.863Z,6.67
2018-05-09T03:21:15.833Z,8.10
2018-05-09T03:23:43.599Z,7.07
2018-05-09T03:26:11.396Z,7.30
2018-05-09T03:28:40.045Z,8.20
2018-05-09T03:31:07.918Z,8.20
2018-05-09T03:33:35.777Z,8.33
2018-05-09T03:36:03.831Z,7.40
2018-05-09T03:38:32.026Z,8.20
2018-05-09T03:41:00.092Z,10.70
2018-05-09T03:43:27.959Z,8.00
2018-05-09T03:45:55.824Z,8.03
2018-05-09T03:48:23.692Z,7.53
2018-05-09T03:50:51.472Z,8.80
2018-05-09T03:53:19.268Z,9.00
2018-05-09T03:55:48.024Z,8.90
2018-05-09T03:58:15.744Z,7.93
2018-05-09T04:00:43.465Z,8.93
2018-05-09T04:03:23.917Z,9.40
2018-05-09T04:06:04.455Z,8.50
2018-05-09T04:08:44.219Z,8.93
2018-05-09T04:11:11.942Z,9.00
2018-05-09T04:13:39.659Z,8.80
2018-05-09T04:16:08.207Z,7.80
2018-05-09T04:18:36.074Z,8.97
2018-05-09T04:21:04.248Z,8.40
2018-05-09T04:23:32.114Z,7.63
2018-05-09T04:25:59.844Z,7.90
2018-05-09T04:28:28.155Z,8.57
2018-05-09T04:30:56.022Z,7.77
2018-05-09T04:33:23.898Z,8.30
2018-05-09T04:35:51.658Z,8.40
2018-05-09T04:38:19.409Z,9.50
2018-05-09T04:40:47.163Z,8.20
2018-05-09T04:43:14.952Z,7.57
2018-05-09T04:45:43.307Z,6.77
2018-05-09T04:48:36.487Z,6.80
2018-05-09T04:51:21.874Z,6.80
2018-05-09T04:53:50.489Z,5.47
2018-05-09T04:56:18.205Z,5.67
2018-05-09T04:58:45.932Z,4.70
2018-05-09T05:01:13.703Z,5.80
2018-05-09T05:03:42.919Z,5.50
2018-05-09T05:06:12.127Z,5.60
2018-05-09T05:08:39.994Z,5.50
2018-05-09T05:11:07.752Z,6.00
2018-05-09T05:13:35.483Z,6.00
2018-05-09T05:16:03.243Z,6.20
2018-05-09T05:18:30.953Z,5.83
2018-05-09T05:20:58.824Z,5.80
2018-05-09T05:23:26.546Z,6.77
2018-05-09T05:25:54.320Z,6.07
2018-05-09T05:28:22.066Z,6.70
2018-05-09T05:30:49.782Z,6.70
2018-05-09T05:33:17.533Z,6.73
2018-05-09T05:35:45.303Z,6.60
2018-05-09T05:38:13.011Z,5.93
2018-05-09T05:40:40.743Z,6.30
2018-05-09T05:43:09.632Z,6.40
2018-05-09T05:45:38.160Z,5.87
2018-05-09T05:48:05.871Z,5.30
2018-05-09T05:50:33.633Z,6.83
2018-05-09T05:53:01.346Z,6.10
2018-05-09T05:55:29.099Z,5.80
2018-05-09T05:57:56.813Z,6.00
2018-05-09T06:00:24.605Z,6.33
2018-05-09T06:02:53.084Z,6.70
2018-05-09T06:05:21.649Z,6.33
2018-05-09T06:07:49.434Z,6.47
2018-05-09T06:10:17.140Z,6.80
2018-05-09T06:12:44.944Z,6.80
2018-05-09T06:15:12.706Z,7.03
2018-05-09T06:17:40.432Z,7.50
2018-05-09T06:20:08.187Z,7.03
2018-05-09T06:22:35.911Z,6.53
2018-05-09T06:25:03.755Z,6.17
2018-05-09T06:27:31.488Z,6.63
2018-05-09T06:29:59.383Z,5.67
2018-05-09T06:32:27.095Z,7.00
2018-05-09T06:34:54.852Z,6.30
2018-05-09T06:37:23.404Z,5.77
2018-05-09T06:39:51.463Z,6.07
2018-05-09T06:42:19.535Z,6.90
2018-05-09T06:44:47.404Z,6.23
2018-05-09T06:47:16.192Z,5.93
2018-05-09T06:49:44.161Z,6.70
2018-05-09T06:52:12.027Z,6.10
2018-05-09T06:54:39.893Z,6.37
2018-05-09T06:57:07.760Z,6.43
2018-05-09T06:59:35.628Z,6.07
2018-05-09T07:02:03.618Z,5.70
2018-05-09T07:04:31.461Z,6.30
2018-05-09T07:06:59.326Z,5.80
2018-05-09T07:09:27.706Z,6.83
2018-05-09T07:11:55.571Z,7.10
2018-05-09T07:14:23.444Z,6.10
2018-05-09T07:16:51.311Z,7.07
2018-05-09T07:19:19.169Z,7.13
2018-05-09T07:21:47.035Z,7.17
2018-05-09T07:24:14.902Z,7.63
2018-05-09T07:26:42.769Z,6.37
2018-05-09T07:29:10.635Z,6.70
2018-05-09T07:31:38.508Z,6.87
2018-05-09T07:34:06.469Z,6.97
2018-05-09T07:36:34.339Z,7.10
2018-05-09T07:39:02.202Z,7.83
2018-05-09T07:41:30.069Z,6.90
2018-05-09T07:43:57.936Z,6.60
2018-05-09T07:46:25.801Z,7.33
2018-05-09T07:48:53.949Z,7.10
2018-05-09T07:51:22.558Z,7.37
2018-05-09T07:53:50.422Z,7.20
2018-05-09T07:56:18.393Z,7.20
2018-05-09T07:58:46.258Z,6.90
2018-05-09T08:01:14.129Z,7.03
2018-05-09T08:03:42.232Z,7.40
2018-05-09T08:06:10.062Z,6.77
2018-05-09T08:08:37.927Z,7.57
2018-05-09T08:11:05.797Z,6.13
2018-05-09T08:13:33.556Z,7.50
2018-05-09T08:16:01.425Z,6.57
2018-05-09T08:18:29.296Z,6.50
2018-05-09T08:20:57.154Z,6.73
2018-05-09T08:23:25.534Z,7.37
2018-05-09T08:25:53.398Z,7.07
2018-05-09T08:28:21.269Z,6.50
2018-05-09T08:30:49.234Z,5.90
2018-05-09T08:33:17.182Z,6.60
2018-05-09T08:35:45.071Z,6.77
2018-05-09T08:38:13.345Z,11.47
2018-05-09T08:40:41.066Z,6.30
2018-05-09T08:43:08.773Z,6.50
2018-05-09T08:45:37.662Z,6.80
2018-05-09T08:48:05.388Z,6.83
2018-05-09T08:50:33.123Z,5.97
2018-05-09T08:53:02.105Z,6.53
2018-05-09T08:55:30.652Z,6.20
2018-05-09T08:57:58.339Z,6.37
2018-05-09T09:00:26.090Z,6.77
2018-05-09T09:02:53.947Z,6.30
2018-05-09T09:05:21.815Z,6.23
2018-05-09T09:07:49.694Z,5.97
2018-05-09T09:10:17.547Z,6.70
2018-05-09T09:12:45.413Z,7.10
2018-05-09T09:15:13.283Z,6.13
2018-05-09T09:17:41.143Z,5.30
2018-05-09T09:20:09.009Z,5.23
2018-05-09T09:22:36.876Z,5.60
2018-05-09T09:25:04.742Z,6.10
2018-05-09T09:27:32.607Z,5.73
2018-05-09T09:30:00.474Z,5.87
2018-05-09T09:32:28.571Z,6.67
2018-05-09T09:34:57.230Z,6.23
2018-05-09T09:37:25.096Z,6.27
2018-05-09T09:39:52.959Z,5.43
2018-05-09T09:42:20.826Z,5.70
2018-05-09T09:44:48.895Z,5.17
2018-05-09T09:47:16.761Z,5.23
2018-05-09T09:49:44.626Z,5.07
2018-05-09T09:52:12.493Z,5.90
2018-05-09T09:54:41.283Z,6.57
2018-05-09T09:57:09.248Z,5.00
2018-05-09T09:59:37.115Z,4.90
2018-05-09T10:02:04.979Z,4.97
2018-05-09T10:04:33.050Z,5.13
2018-05-09T10:07:01.018Z,5.37
2018-05-09T10:09:28.884Z,5.70
2018-05-09T10:11:56.748Z,5.03
2018-05-09T10:14:24.619Z,4.10
2018-05-09T10:16:52.481Z,4.40
2018-05-09T10:19:21.170Z,4.80
2018-05-09T10:21:49.134Z,6.47
2018-05-09T10:24:17.000Z,4.57
2018-05-09T10:26:44.868Z,4.00
2018-05-09T10:29:13.141Z,4.50
2018-05-09T10:31:41.006Z,3.73
2018-05-09T10:34:08.873Z,3.53
2018-05-09T10:36:36.738Z,3.63
2018-05-09T10:39:05.421Z,3.30
2018-05-09T10:41:33.492Z,3.80
2018-05-09T10:44:01.358Z,2.70
2018-05-09T10:46:29.226Z,3.37
2018-05-09T10:48:57.199Z,3.97
2018-05-09T10:51:24.914Z,3.30
2018-05-09T10:53:52.821Z,3.30
2018-05-09T10:56:20.687Z,2.77
2018-05-09T10:58:48.655Z,3.43
2018-05-09T11:01:16.524Z,3.20
2018-05-09T11:03:44.388Z,2.50
2018-05-09T11:06:12.457Z,3.70
2018-05-09T11:08:40.324Z,2.97
2018-05-09T11:11:08.192Z,3.60
2018-05-09T11:13:36.155Z,3.90
2018-05-09T11:16:04.123Z,2.97
2018-05-09T11:18:32.501Z,3.40
2018-05-09T11:21:00.367Z,3.90
2018-05-09T11:23:28.233Z,2.93
2018-05-09T11:25:56.305Z,3.10
2018-05-09T11:28:24.169Z,3.13
2018-05-09T11:30:52.034Z,3.33
2018-05-09T11:33:19.910Z,3.20
2018-05-09T11:35:48.073Z,3.20
2018-05-09T11:38:15.937Z,2.90
2018-05-09T11:40:43.804Z,2.67
2018-05-09T11:43:11.670Z,3.07
2018-05-09T11:45:39.538Z,3.23
2018-05-09T11:48:07.506Z,2.90
2018-05-09T11:50:35.370Z,2.73
2018-05-09T11:53:03.145Z,3.20
2018-05-09T11:55:31.000Z,3.23
2018-05-09T11:58:01.732Z,3.30
2018-05-09T12:00:29.602Z,3.03
2018-05-09T12:02:57.462Z,3.00
2018-05-09T12:05:25.329Z,3.00
2018-05-09T12:07:53.297Z,2.67
2018-05-09T12:10:21.284Z,3.17
2018-05-09T12:12:49.027Z,3.03
2018-05-09T12:15:16.893Z,3.23
2018-05-09T12:17:44.765Z,2.87
2018-05-09T12:20:12.624Z,2.80
2018-05-09T12:22:40.731Z,2.93
2018-05-09T12:25:09.381Z,3.13
2018-05-09T12:27:37.246Z,3.47
2018-05-09T12:30:05.317Z,3.00
2018-05-09T12:32:33.078Z,3.27
2018-05-09T12:35:01.035Z,2.20
2018-05-09T12:37:29.719Z,3.07
2018-05-09T12:39:58.524Z,3.23
2018-05-09T12:42:27.835Z,3.27
2018-05-09T12:44:56.094Z,2.73
2018-05-09T12:47:23.966Z,3.20
2018-05-09T12:49:51.825Z,3.03
2018-05-09T12:52:19.690Z,2.70
2018-05-09T12:54:47.760Z,3.07
2018-05-09T12:57:15.629Z,3.10
2018-05-09T12:59:43.494Z,3.30
2018-05-09T13:02:11.868Z,2.90
2018-05-09T13:04:39.735Z,3.13
2018-05-09T13:07:07.602Z,3.37
2018-05-09T13:09:35.669Z,3.00
2018-05-09T13:12:04.716Z,2.67
2018-05-09T13:14:32.631Z,3.07
2018-05-09T13:17:01.829Z,3.30
2018-05-09T13:19:30.615Z,2.50
2018-05-09T13:21:58.480Z,4.07
2018-05-09T13:24:26.453Z,3.70
2018-05-09T13:26:54.314Z,3.10
2018-05-09T13:29:22.180Z,3.10
2018-05-09T13:31:50.045Z,3.03
2018-05-09T13:34:17.912Z,3.40
2018-05-09T13:36:46.596Z,3.50
2018-05-09T13:39:16.640Z,3.33
2018-05-09T13:41:44.886Z,3.00
2018-05-09T13:44:14.092Z,2.93
2018-05-09T13:46:43.629Z,3.00
2018-05-09T13:49:13.789Z,2.83
2018-05-09T13:51:43.470Z,3.00
2018-05-09T13:54:12.204Z,2.83
2018-05-09T13:56:41.095Z,3.13
2018-05-09T13:59:09.880Z,2.90
2018-05-09T14:01:37.744Z,3.03
2018-05-09T14:04:05.609Z,3.13
2018-05-09T14:06:33.374Z,2.93
2018-05-09T14:09:02.297Z,3.13
2018-05-09T14:11:33.968Z,3.53
2018-05-09T14:14:01.887Z,3.20
2018-05-09T14:16:29.751Z,3.53
2018-05-09T14:18:57.618Z,3.47
2018-05-09T14:21:25.485Z,3.40
2018-05-09T14:23:53.271Z,3.10
2018-05-09T14:26:22.171Z,3.63
2018-05-09T14:28:50.688Z,3.80
2018-05-09T14:31:18.422Z,3.23
2018-05-09T14:33:46.998Z,3.20
2018-05-09T14:36:15.548Z,3.20
2018-05-09T14:38:43.265Z,3.20
2018-05-09T14:41:11.065Z,3.37
2018-05-09T14:43:39.546Z,3.83
2018-05-09T14:46:07.261Z,3.53
2018-05-09T14:48:35.180Z,3.10
2018-05-09T14:51:03.041Z,3.10
2018-05-09T14:53:31.013Z,3.93
2018-05-09T14:55:58.877Z,3.77
2018-05-09T14:58:26.743Z,3.50
2018-05-09T15:00:54.711Z,3.73
2018-05-09T15:03:22.576Z,3.20
2018-05-09T15:05:51.569Z,3.13
2018-05-09T15:08:19.434Z,3.87
2018-05-09T15:10:47.163Z,3.77
2018-05-09T15:13:14.900Z,3.47
2018-05-09T15:15:44.724Z,3.30
2018-05-09T15:18:14.642Z,3.17
2018-05-09T15:20:42.652Z,3.43
2018-05-09T15:23:10.447Z,3.80
2018-05-09T15:25:39.102Z,4.07
2018-05-09T15:28:06.848Z,3.10
2018-05-09T15:30:35.122Z,3.57
2018-05-09T15:33:04.459Z,3.20
2018-05-09T15:35:33.230Z,3.07
2018-05-09T15:38:01.953Z,3.40
2018-05-09T15:40:30.595Z,3.13
2018-05-09T15:42:59.977Z,3.20
2018-05-09T15:45:28.887Z,3.73
2018-05-09T15:47:56.604Z,2.87
2018-05-09T15:50:24.923Z,3.80
2018-05-09T15:52:53.634Z,4.00
2018-05-09T15:55:21.399Z,3.53
2018-05-09T15:57:49.964Z,3.10
2018-05-09T16:00:17.748Z,3.37
2018-05-09T16:02:46.235Z,3.00
2018-05-09T16:05:14.022Z,3.33
2018-05-09T16:07:41.749Z,3.07
2018-05-09T16:10:10.331Z,3.23
2018-05-09T16:12:38.820Z,4.20
2018-05-09T16:15:07.470Z,3.50
2018-05-09T16:17:35.187Z,3.80
2018-05-09T16:20:02.935Z,3.80
2018-05-09T16:22:31.687Z,3.70
2018-05-09T16:25:00.135Z,3.33
2018-05-09T16:27:27.851Z,3.83
2018-05-09T16:29:56.391Z,3.47
2018-05-09T16:32:24.168Z,3.80
2018-05-09T16:34:52.250Z,4.10
2018-05-09T16:37:20.108Z,4.63
2018-05-09T16:39:47.972Z,3.07
2018-05-09T16:42:15.838Z,4.00
2018-05-09T16:44:43.704Z,4.60
2018-05-09T16:47:11.568Z,4.50
2018-05-09T16:49:39.436Z,4.50
2018-05-09T16:52:07.403Z,4.30
2018-05-09T16:54:35.267Z,4.17
2018-05-09T16:57:03.133Z,4.30
2018-05-09T16:59:31.101Z,3.77
2018-05-09T17:01:58.967Z,3.60
2018-05-09T17:04:26.831Z,3.30
2018-05-09T17:06:55.518Z,3.93
2018-05-09T17:09:23.382Z,4.67
2018-05-09T17:11:51.350Z,4.43
2018-05-09T17:14:19.079Z,3.43
2018-05-09T17:16:46.980Z,4.33
2018-05-09T17:19:14.933Z,3.57
2018-05-09T17:24:54.930Z,3.60
2018-05-09T17:27:22.985Z,4.00
2018-05-09T17:29:50.853Z,3.80
2018-05-09T17:32:18.717Z,3.63
2018-05-09T17:34:46.787Z,3.60
2018-05-09T17:37:14.653Z,4.40
2018-05-09T17:39:42.518Z,4.40
2018-05-09T17:42:10.385Z,4.60
2018-05-09T17:44:38.250Z,3.53
2018-05-09T17:47:06.219Z,3.60
2018-05-09T17:49:33.982Z,3.50
2018-05-09T17:52:01.849Z,3.87
2018-05-09T17:54:29.714Z,3.53
2018-05-09T17:56:58.864Z,5.00
2018-05-09T17:59:28.107Z,3.93
2018-05-09T18:01:56.282Z,3.77
2018-05-09T18:04:24.048Z,14.00
2018-05-09T18:06:52.013Z,3.63
2018-05-09T18:09:19.877Z,3.80
2018-05-09T18:11:47.947Z,3.80
2018-05-09T18:14:15.924Z,3.90
2018-05-09T18:16:45.528Z,3.80
2018-05-09T18:19:14.615Z,3.77
2018-05-09T18:21:43.000Z,3.50
2018-05-09T18:24:10.861Z,3.63
2018-05-09T18:26:40.066Z,5.07
2018-05-09T18:29:08.739Z,4.47
2018-05-09T18:31:39.145Z,4.20
2018-05-09T18:34:07.851Z,5.60
2018-05-09T18:36:35.818Z,5.70
2018-05-09T18:39:03.642Z,4.70
2018-05-09T18:41:33.188Z,4.80
2018-05-09T18:44:01.870Z,4.80
2018-05-09T18:46:29.637Z,4.83
2018-05-09T18:48:57.469Z,5.17
2018-05-09T18:51:25.261Z,4.60
2018-05-09T18:53:55.451Z,4.30
2018-05-09T18:56:23.231Z,6.07
2018-05-09T18:58:50.970Z,4.87
2018-05-09T19:01:18.770Z,4.70
2018-05-09T19:03:46.533Z,4.77
2018-05-09T19:06:14.280Z,4.67
2018-05-09T19:08:42.927Z,4.00
2018-05-09T19:11:11.453Z,5.60
2018-05-09T19:13:39.176Z,4.77
2018-05-09T19:16:24.433Z,4.90
2018-05-09T19:18:52.176Z,4.30
2018-05-09T19:21:19.929Z,5.00
2018-05-09T19:23:47.689Z,4.93
2018-05-09T19:26:15.713Z,5.70
2018-05-09T19:28:43.512Z,6.63
2018-05-09T19:31:11.389Z,4.93
2018-05-09T19:33:39.258Z,5.57
2018-05-09T19:36:07.029Z,5.30
2018-05-09T19:38:34.851Z,5.07
2018-05-09T19:41:03.262Z,4.70
2018-05-09T19:43:31.772Z,5.20
2018-05-09T19:46:00.289Z,6.67
2018-05-09T19:48:28.161Z,6.33
2018-05-09T19:50:55.932Z,6.13
2018-05-09T19:53:23.647Z,6.73
2018-05-09T19:55:52.196Z,6.47
2018-05-09T19:58:19.908Z,7.03
2018-05-09T20:00:55.869Z,7.50
2018-05-09T20:03:25.447Z,6.43
2018-05-09T20:05:54.128Z,5.30
2018-05-09T20:08:22.619Z,5.73
2018-05-09T20:10:51.193Z,6.63
2018-05-09T20:13:19.747Z,5.30
2018-05-09T20:15:47.818Z,5.63
2018-05-09T20:18:15.990Z,6.13
2018-05-09T20:20:45.199Z,5.50
2018-05-09T20:23:13.160Z,5.73
2018-05-09T20:25:41.230Z,5.30
2018-05-09T20:28:09.094Z,5.83
2018-05-09T20:30:42.620Z,5.90
2018-05-09T20:33:11.266Z,6.50
2018-05-09T20:35:39.076Z,5.57
2018-05-09T20:38:08.439Z,6.03
2018-05-09T20:40:36.304Z,5.23
2018-05-09T20:43:05.129Z,5.47
2018-05-09T20:45:34.626Z,5.83
2018-05-09T20:48:03.280Z,6.10
2018-05-09T20:50:31.147Z,5.90
2018-05-09T20:52:59.117Z,6.27
2018-05-09T20:55:29.136Z,5.30
2018-05-09T20:58:01.057Z,6.10
2018-05-09T21:00:29.964Z,6.27
2018-05-09T21:03:00.064Z,6.80
2018-05-09T21:05:28.783Z,6.40
2018-05-09T21:07:57.610Z,6.67
2018-05-09T21:10:27.111Z,5.50
2018-05-09T21:12:55.044Z,5.87
2018-05-09T21:15:23.016Z,6.90
2018-05-09T21:17:50.875Z,5.67
2018-05-09T21:20:18.748Z,6.40
2018-05-09T21:22:46.608Z,7.83
2018-05-09T21:25:14.474Z,7.33
2018-05-09T21:27:42.485Z,6.57
2018-05-09T21:30:11.004Z,6.47
2018-05-09T21:32:38.788Z,7.43
2018-05-09T21:35:06.757Z,6.70
2018-05-09T21:37:34.621Z,8.57
2018-05-09T21:40:02.486Z,8.73
2018-05-09T21:42:30.557Z,7.80
2018-05-09T21:44:58.423Z,9.60
2018-05-09T21:47:26.287Z,8.60
2018-05-09T21:49:54.460Z,8.20
2018-05-09T21:52:22.327Z,6.90
2018-05-09T21:54:50.191Z,7.50
2018-05-09T21:57:18.401Z,6.23
2018-05-09T21:59:47.049Z,7.13
2018-05-09T22:02:14.917Z,6.73
2018-05-09T22:04:42.780Z,6.50
2018-05-09T22:07:10.647Z,8.00
2018-05-09T22:09:38.512Z,6.37
2018-05-09T22:12:06.377Z,6.57
2018-05-09T22:14:34.187Z,8.00
2018-05-09T22:17:02.827Z,7.00
2018-05-09T22:19:30.693Z,8.10
2018-05-09T22:21:58.658Z,8.50
2018-05-09T22:24:26.524Z,8.80
2018-05-09T22:26:54.698Z,8.03
2018-05-09T22:29:22.564Z,9.50
2018-05-09T22:31:50.429Z,8.80
2018-05-09T22:34:18.807Z,9.40
2018-05-09T22:36:46.672Z,9.50
2018-05-09T22:39:14.536Z,9.67
2018-05-09T22:41:42.293Z,10.20
2018-05-09T22:44:10.167Z,10.10
2018-05-09T22:46:38.031Z,10.90
2018-05-09T22:49:06.001Z,12.23
2018-05-09T22:51:33.864Z,12.97
2018-05-09T22:54:01.659Z,18.10
2018-05-09T22:56:30.246Z,16.57
2018-05-09T22:58:58.896Z,19.30
2018-05-09T23:01:26.762Z,20.63
2018-05-09T23:03:54.934Z,21.10
2018-05-09T23:06:22.902Z,21.63
2018-05-09T23:08:50.773Z,25.13
2018-05-09T23:11:18.734Z,24.80
2018-05-09T23:13:47.625Z,25.97
2018-05-09T23:16:15.490Z,25.83
2018-05-09T23:18:43.359Z,27.50
2018-05-09T23:21:11.221Z,28.97
2018-05-09T23:23:39.155Z,31.00
2018-05-09T23:26:07.789Z,30.13
2018-05-09T23:28:36.456Z,33.93
2018-05-09T23:31:04.323Z,34.60
2018-05-09T23:33:32.395Z,36.80
2018-05-09T23:36:00.267Z,40.87
2018-05-09T23:38:29.045Z,40.90
2018-05-09T23:40:56.910Z,42.13
2018-05-09T23:43:24.776Z,42.20
2018-05-09T23:45:52.653Z,40.50
2018-05-09T23:48:21.635Z,42.30
2018-05-09T23:50:49.607Z,44.17
2018-05-09T23:53:18.286Z,47.07
2018-05-09T23:55:46.201Z,50.53
2018-05-09T23:58:14.839Z,53.97
